Check out our new PWSWeather beta!
PWSweather.com
Personal Weather Stations
Station Observations
SHAHALMS1
Eftra, Falkenberg, HA

EftraFalkenberg, HA

Lat: 56.85, Lon: 12.65

Elevation: 140

Station Type:

http://hem.passagen.se/risarp101

High Low Average
Temperature 70.2°F21.2°C 59.2°F15.1°C 64.1°F17.8°C
Dew Point 62.8°F17.1°C 55.0°F12.8°C 59.4°F15.2°C
Winds 8.8 mph 14.2 kmh Calm Calm 4.0 mph S6.4 kmh S
Wind Gusts 22.9 mph36.9 kmh -- 11.0 mph17.7 kmh
Humidity 92% 75% 85%
Pressure 30.30 in1026.1 mb 30.18 in1022.0 mb -
Precipitation 0.05 in1.3 mm - -
Hour Temp Dew Point Humidity Winds Wind Gusts Pressure Precip Precip Rate Daily Precip Total
12:00 AM 59.4°F15.2°C 55.2°F12.9°C 86% 0.5 mph S0.8 kmh S 4.7 mph7.6 kmh 30.24 in1024.0 mb 0.05 in1.3 mm 0.00 in0.0 mm 0.05 in1.3 mm
12:10 AM 59.2°F15.1°C 55.0°F12.8°C 86% Calm Calm 1.4 mph2.3 kmh 30.24 in1024.0 mb 0.05 in1.3 mm 0.00 in0.0 mm 0.05 in1.3 mm
12:20 AM 59.4°F15.2°C 55.5°F13.1°C 87% 0.3 mph SE0.5 kmh SE 3.2 mph5.1 kmh 30.24 in1024.0 mb 0.00 in0.0 mm 0.00 in0.0 mm 0.05 in1.3 mm
12:30 AM 59.5°F15.3°C 55.7°F13.2°C 87% 0.4 mph SE0.6 kmh SE 4.7 mph7.6 kmh 30.27 in1025.1 mb 0.00 in0.0 mm 0.00 in0.0 mm 0.05 in1.3 mm
12:40 AM 59.5°F15.3°C 56.0°F13.3°C 88% 0.3 mph ESE0.5 kmh ESE 6.4 mph10.3 kmh 30.24 in1024.0 mb 0.00 in0.0 mm 0.00 in0.0 mm 0.05 in1.3 mm
12:50 AM 59.7°F15.4°C 56.5°F13.6°C 89% 2.5 mph SE4.0 kmh SE 8.6 mph13.8 kmh 30.24 in1024.0 mb 0.00 in0.0 mm 0.00 in0.0 mm 0.05 in1.3 mm
01:00 AM 59.7°F15.4°C 56.8°F13.8°C 90% 3.6 mph SE5.8 kmh SE 8.6 mph13.8 kmh 30.24 in1024.0 mb 0.00 in0.0 mm 0.00 in0.0 mm 0.05 in1.3 mm
01:10 AM 59.7°F15.4°C 56.8°F13.8°C 90% 2.8 mph SE4.5 kmh SE 7.2 mph11.6 kmh 30.24 in1024.0 mb 0.00 in0.0 mm 0.00 in0.0 mm 0.05 in1.3 mm
01:20 AM 59.9°F15.5°C 57.0°F13.9°C 90% 0.6 mph SE1.0 kmh SE 4.7 mph7.6 kmh 30.24 in1024.0 mb 0.00 in0.0 mm 0.00 in0.0 mm 0.05 in1.3 mm
01:30 AM 59.9°F15.5°C 57.0°F13.9°C 90% 0.6 mph S1.0 kmh S 5.0 mph8.0 kmh 30.24 in1024.0 mb 0.00 in0.0 mm 0.00 in0.0 mm 0.05 in1.3 mm
01:40 AM 59.9°F15.5°C 57.3°F14.1°C 91% 1.2 mph SE1.9 kmh SE 6.8 mph10.9 kmh 30.24 in1024.0 mb 0.00 in0.0 mm 0.00 in0.0 mm 0.05 in1.3 mm
01:50 AM 59.9°F15.5°C 57.3°F14.1°C 91% 0.5 mph S0.8 kmh S 5.0 mph8.0 kmh 30.24 in1024.0 mb 0.00 in0.0 mm 0.00 in0.0 mm 0.05 in1.3 mm
02:00 AM 59.9°F15.5°C 57.3°F14.1°C 91% 1.5 mph S2.4 kmh S 6.8 mph10.9 kmh 30.24 in1024.0 mb 0.00 in0.0 mm 0.00 in0.0 mm 0.05 in1.3 mm
02:10 AM 60.1°F15.6°C 57.7°F14.3°C 92% 2.1 mph S3.4 kmh S 6.1 mph9.8 kmh 30.24 in1024.0 mb 0.00 in0.0 mm 0.00 in0.0 mm 0.05 in1.3 mm
02:20 AM 60.3°F15.7°C 57.9°F14.4°C 92% 1.5 mph S2.4 kmh S 6.1 mph9.8 kmh 30.24 in1024.0 mb 0.00 in0.0 mm 0.00 in0.0 mm 0.05 in1.3 mm
02:30 AM 60.4°F15.8°C 58.1°F14.5°C 92% 2.2 mph S3.5 kmh S 6.1 mph9.8 kmh 30.24 in1024.0 mb 0.00 in0.0 mm 0.00 in0.0 mm 0.05 in1.3 mm
02:40 AM 60.6°F15.9°C 58.3°F14.6°C 92% 0.9 mph S1.4 kmh S 5.7 mph9.2 kmh 30.21 in1023.0 mb 0.00 in0.0 mm 0.00 in0.0 mm 0.05 in1.3 mm
02:50 AM 60.8°F16.0°C 58.5°F14.7°C 92% 2.9 mph S4.7 kmh S 7.9 mph12.7 kmh 30.21 in1023.0 mb 0.00 in0.0 mm 0.00 in0.0 mm 0.05 in1.3 mm
03:00 AM 61.0°F16.1°C 58.6°F14.8°C 92% 4.4 mph S7.1 kmh S 8.9 mph14.3 kmh 30.21 in1023.0 mb 0.00 in0.0 mm 0.00 in0.0 mm 0.05 in1.3 mm
03:10 AM 61.0°F16.1°C 58.3°F14.6°C 91% 3.7 mph S6.0 kmh S 9.3 mph15.0 kmh 30.21 in1023.0 mb 0.00 in0.0 mm 0.00 in0.0 mm 0.05 in1.3 mm
03:20 AM 61.0°F16.1°C 58.3°F14.6°C 91% 4.2 mph S6.8 kmh S 10.0 mph16.1 kmh 30.21 in1023.0 mb 0.00 in0.0 mm 0.00 in0.0 mm 0.05 in1.3 mm
03:30 AM 61.0°F16.1°C 58.0°F14.4°C 90% 4.2 mph S6.8 kmh S 9.3 mph15.0 kmh 30.18 in1022.0 mb 0.00 in0.0 mm 0.00 in0.0 mm 0.05 in1.3 mm
03:40 AM 61.0°F16.1°C 58.0°F14.4°C 90% 5.7 mph S9.2 kmh S 13.6 mph21.9 kmh 30.21 in1023.0 mb 0.00 in0.0 mm 0.00 in0.0 mm 0.05 in1.3 mm
03:50 AM 61.0°F16.1°C 58.0°F14.4°C 90% 3.6 mph S5.8 kmh S 10.4 mph16.7 kmh 30.21 in1023.0 mb 0.00 in0.0 mm 0.00 in0.0 mm 0.05 in1.3 mm
04:00 AM 61.2°F16.2°C 58.2°F14.6°C 90% 3.8 mph SSW6.1 kmh SSW 12.2 mph19.6 kmh 30.21 in1023.0 mb 0.00 in0.0 mm 0.00 in0.0 mm 0.05 in1.3 mm
04:10 AM 61.3°F16.3°C 58.4°F14.7°C 90% 4.7 mph S7.6 kmh S 13.6 mph21.9 kmh 30.18 in1022.0 mb 0.00 in0.0 mm 0.00 in0.0 mm 0.05 in1.3 mm
04:20 AM 61.5°F16.4°C 58.6°F14.8°C 90% 4.6 mph S7.4 kmh S 11.8 mph19.0 kmh 30.18 in1022.0 mb 0.00 in0.0 mm 0.00 in0.0 mm 0.05 in1.3 mm
04:30 AM 61.5°F16.4°C 58.6°F14.8°C 90% 3.1 mph SSW5.0 kmh SSW 10.4 mph16.7 kmh 30.21 in1023.0 mb 0.00 in0.0 mm 0.00 in0.0 mm 0.05 in1.3 mm
04:40 AM 61.7°F16.5°C 58.7°F14.8°C 90% 4.4 mph SW7.1 kmh SW 12.5 mph20.1 kmh 30.21 in1023.0 mb 0.00 in0.0 mm 0.00 in0.0 mm 0.05 in1.3 mm
04:50 AM 61.7°F16.5°C 58.7°F14.8°C 90% 4.9 mph S7.9 kmh S 15.7 mph25.3 kmh 30.21 in1023.0 mb 0.00 in0.0 mm 0.00 in0.0 mm 0.05 in1.3 mm
05:00 AM 61.9°F16.6°C 58.9°F14.9°C 90% 6.0 mph S9.7 kmh S 11.8 mph19.0 kmh 30.18 in1022.0 mb 0.00 in0.0 mm 0.00 in0.0 mm 0.05 in1.3 mm
05:10 AM 61.9°F16.6°C 58.9°F14.9°C 90% 5.5 mph S8.9 kmh S 12.9 mph20.8 kmh 30.18 in1022.0 mb 0.00 in0.0 mm 0.00 in0.0 mm 0.05 in1.3 mm
05:20 AM 62.1°F16.7°C 58.8°F14.9°C 89% 5.5 mph S8.9 kmh S 13.6 mph21.9 kmh 30.18 in1022.0 mb 0.00 in0.0 mm 0.00 in0.0 mm 0.05 in1.3 mm
05:30 AM 62.1°F16.7°C 58.8°F14.9°C 89% 6.2 mph S10.0 kmh S 12.5 mph20.1 kmh 30.18 in1022.0 mb 0.00 in0.0 mm 0.00 in0.0 mm 0.05 in1.3 mm
05:40 AM 62.1°F16.7°C 58.8°F14.9°C 89% 5.6 mph S9.0 kmh S 15.0 mph24.1 kmh 30.18 in1022.0 mb 0.00 in0.0 mm 0.00 in0.0 mm 0.05 in1.3 mm
05:50 AM 62.2°F16.8°C 59.0°F15.0°C 89% 6.2 mph S10.0 kmh S 14.0 mph22.5 kmh 30.18 in1022.0 mb 0.00 in0.0 mm 0.00 in0.0 mm 0.05 in1.3 mm
06:00 AM 62.4°F16.9°C 59.1°F15.1°C 89% 5.6 mph S9.0 kmh S 12.5 mph20.1 kmh 30.21 in1023.0 mb 0.00 in0.0 mm 0.00 in0.0 mm 0.05 in1.3 mm
06:10 AM 62.4°F16.9°C 59.1°F15.1°C 89% 6.1 mph S9.8 kmh S 16.1 mph25.9 kmh 30.21 in1023.0 mb 0.00 in0.0 mm 0.00 in0.0 mm 0.05 in1.3 mm
06:20 AM 62.6°F17.0°C 59.3°F15.2°C 89% 5.6 mph S9.0 kmh S 9.7 mph15.6 kmh 30.21 in1023.0 mb 0.00 in0.0 mm 0.00 in0.0 mm 0.05 in1.3 mm
06:30 AM 62.6°F17.0°C 59.3°F15.2°C 89% 6.3 mph S10.1 kmh S 14.0 mph22.5 kmh 30.21 in1023.0 mb 0.00 in0.0 mm 0.00 in0.0 mm 0.05 in1.3 mm
06:40 AM 62.8°F17.1°C 59.5°F15.3°C 89% 6.2 mph S10.0 kmh S 13.6 mph21.9 kmh 30.21 in1023.0 mb 0.00 in0.0 mm 0.00 in0.0 mm 0.05 in1.3 mm
06:50 AM 62.8°F17.1°C 59.5°F15.3°C 89% 6.6 mph SSW10.6 kmh SSW 13.6 mph21.9 kmh 30.21 in1023.0 mb 0.00 in0.0 mm 0.00 in0.0 mm 0.05 in1.3 mm
07:00 AM 63.0°F17.2°C 59.7°F15.4°C 89% 6.5 mph S10.5 kmh S 10.4 mph16.7 kmh 30.21 in1023.0 mb 0.00 in0.0 mm 0.00 in0.0 mm 0.05 in1.3 mm
07:10 AM 63.1°F17.3°C 59.8°F15.4°C 89% 6.2 mph S10.0 kmh S 11.8 mph19.0 kmh 30.21 in1023.0 mb 0.00 in0.0 mm 0.00 in0.0 mm 0.05 in1.3 mm
07:20 AM 63.3°F17.4°C 59.7°F15.4°C 88% 6.7 mph S10.8 kmh S 11.8 mph19.0 kmh 30.21 in1023.0 mb 0.00 in0.0 mm 0.00 in0.0 mm 0.05 in1.3 mm
07:30 AM 63.5°F17.5°C 59.9°F15.5°C 88% 7.2 mph S11.6 kmh S 12.5 mph20.1 kmh 30.21 in1023.0 mb 0.00 in0.0 mm 0.00 in0.0 mm 0.05 in1.3 mm
07:40 AM 63.3°F17.4°C 59.7°F15.4°C 88% 7.3 mph S11.7 kmh S 16.1 mph25.9 kmh 30.21 in1023.0 mb 0.00 in0.0 mm 0.00 in0.0 mm 0.05 in1.3 mm
07:50 AM 63.3°F17.4°C 59.7°F15.4°C 88% 5.2 mph S8.4 kmh S 11.8 mph19.0 kmh 30.21 in1023.0 mb 0.00 in0.0 mm 0.00 in0.0 mm 0.05 in1.3 mm
08:00 AM 63.3°F17.4°C 59.7°F15.4°C 88% 5.6 mph S9.0 kmh S 12.2 mph19.6 kmh 30.21 in1023.0 mb 0.00 in0.0 mm 0.00 in0.0 mm 0.05 in1.3 mm
08:10 AM 63.3°F17.4°C 59.7°F15.4°C 88% 6.3 mph S10.1 kmh S 11.8 mph19.0 kmh 30.21 in1023.0 mb 0.00 in0.0 mm 0.00 in0.0 mm 0.05 in1.3 mm
08:20 AM 63.3°F17.4°C 59.7°F15.4°C 88% 5.7 mph S9.2 kmh S 11.1 mph17.9 kmh 30.21 in1023.0 mb 0.00 in0.0 mm 0.00 in0.0 mm 0.05 in1.3 mm
08:30 AM 63.3°F17.4°C 59.7°F15.4°C 88% 7.0 mph SSW11.3 kmh SSW 17.5 mph28.2 kmh 30.21 in1023.0 mb 0.00 in0.0 mm 0.00 in0.0 mm 0.05 in1.3 mm
08:40 AM 63.5°F17.5°C 59.9°F15.5°C 88% 5.7 mph S9.2 kmh S 12.9 mph20.8 kmh 30.21 in1023.0 mb 0.00 in0.0 mm 0.00 in0.0 mm 0.05 in1.3 mm
08:50 AM 63.5°F17.5°C 59.9°F15.5°C 88% 6.5 mph S10.5 kmh S 16.8 mph27.0 kmh 30.21 in1023.0 mb 0.00 in0.0 mm 0.00 in0.0 mm 0.05 in1.3 mm
09:00 AM 63.7°F17.6°C 60.1°F15.6°C 88% 6.6 mph S10.6 kmh S 15.7 mph25.3 kmh 30.24 in1024.0 mb 0.00 in0.0 mm 0.00 in0.0 mm 0.05 in1.3 mm
09:10 AM 63.9°F17.7°C 60.2°F15.7°C 88% 6.9 mph S11.1 kmh S 12.9 mph20.8 kmh 30.24 in1024.0 mb 0.00 in0.0 mm 0.00 in0.0 mm 0.05 in1.3 mm
09:20 AM 64.0°F17.8°C 60.1°F15.6°C 87% 7.0 mph S11.3 kmh S 19.7 mph31.7 kmh 30.24 in1024.0 mb 0.00 in0.0 mm 0.00 in0.0 mm 0.05 in1.3 mm
09:30 AM 64.2°F17.9°C 60.3°F15.7°C 87% 6.6 mph S10.6 kmh S 12.9 mph20.8 kmh 30.24 in1024.0 mb 0.00 in0.0 mm 0.00 in0.0 mm 0.05 in1.3 mm
09:40 AM 64.4°F18.0°C 59.8°F15.4°C 85% 8.8 mph S14.2 kmh S 15.7 mph25.3 kmh 30.24 in1024.0 mb 0.00 in0.0 mm 0.00 in0.0 mm 0.05 in1.3 mm
09:50 AM 64.6°F18.1°C 59.6°F15.3°C 84% 7.8 mph S12.6 kmh S 14.0 mph22.5 kmh 30.24 in1024.0 mb 0.00 in0.0 mm 0.00 in0.0 mm 0.05 in1.3 mm
10:00 AM 64.8°F18.2°C 59.8°F15.4°C 84% 7.2 mph S11.6 kmh S 11.8 mph19.0 kmh 30.24 in1024.0 mb 0.00 in0.0 mm 0.00 in0.0 mm 0.05 in1.3 mm
10:10 AM 64.6°F18.1°C 59.6°F15.3°C 84% 8.5 mph S13.7 kmh S 16.1 mph25.9 kmh 30.24 in1024.0 mb 0.00 in0.0 mm 0.00 in0.0 mm 0.05 in1.3 mm
10:20 AM 64.4°F18.0°C 59.1°F15.1°C 83% 6.5 mph S10.5 kmh S 14.0 mph22.5 kmh 30.24 in1024.0 mb 0.00 in0.0 mm 0.00 in0.0 mm 0.05 in1.3 mm
10:30 AM 64.4°F18.0°C 59.5°F15.3°C 84% 7.1 mph S11.4 kmh S 16.5 mph26.6 kmh 30.24 in1024.0 mb 0.00 in0.0 mm 0.00 in0.0 mm 0.05 in1.3 mm
10:40 AM 64.4°F18.0°C 59.1°F15.1°C 83% 6.5 mph S10.5 kmh S 12.5 mph20.1 kmh 30.24 in1024.0 mb 0.00 in0.0 mm 0.00 in0.0 mm 0.05 in1.3 mm
10:50 AM 64.4°F18.0°C 59.1°F15.1°C 83% 5.6 mph SSW9.0 kmh SSW 10.0 mph16.1 kmh 30.24 in1024.0 mb 0.00 in0.0 mm 0.00 in0.0 mm 0.05 in1.3 mm
11:00 AM 64.2°F17.9°C 59.3°F15.2°C 84% 8.8 mph S14.2 kmh S 20.8 mph33.5 kmh 30.24 in1024.0 mb 0.00 in0.0 mm 0.00 in0.0 mm 0.05 in1.3 mm
11:10 AM 64.2°F17.9°C 59.6°F15.3°C 85% 5.5 mph S8.9 kmh S 15.7 mph25.3 kmh 30.24 in1024.0 mb 0.00 in0.0 mm 0.00 in0.0 mm 0.05 in1.3 mm
11:20 AM 64.4°F18.0°C 59.8°F15.4°C 85% 6.5 mph S10.5 kmh S 14.0 mph22.5 kmh 30.24 in1024.0 mb 0.00 in0.0 mm 0.00 in0.0 mm 0.05 in1.3 mm
11:30 AM 64.4°F18.0°C 59.5°F15.3°C 84% 7.1 mph WSW11.4 kmh WSW 17.2 mph27.7 kmh 30.24 in1024.0 mb 0.00 in0.0 mm 0.00 in0.0 mm 0.05 in1.3 mm
11:40 AM 64.6°F18.1°C 59.6°F15.3°C 84% 7.0 mph S11.3 kmh S 14.0 mph22.5 kmh 30.27 in1025.1 mb 0.00 in0.0 mm 0.00 in0.0 mm 0.05 in1.3 mm
11:50 AM 65.1°F18.4°C 60.2°F15.7°C 84% 6.5 mph SW10.5 kmh SW 13.6 mph21.9 kmh 30.27 in1025.1 mb 0.00 in0.0 mm 0.00 in0.0 mm 0.05 in1.3 mm
12:00 PM 66.2°F19.0°C 61.2°F16.2°C 84% 7.0 mph SSW11.3 kmh SSW 20.0 mph32.2 kmh 30.24 in1024.0 mb 0.00 in0.0 mm 0.00 in0.0 mm 0.05 in1.3 mm
12:10 PM 66.7°F19.3°C 61.4°F16.3°C 83% 5.9 mph SW9.5 kmh SW 19.0 mph30.6 kmh 30.24 in1024.0 mb 0.00 in0.0 mm 0.00 in0.0 mm 0.05 in1.3 mm
12:20 PM 67.3°F19.6°C 61.6°F16.4°C 82% 7.6 mph SSW12.2 kmh SSW 17.5 mph28.2 kmh 30.24 in1024.0 mb 0.00 in0.0 mm 0.00 in0.0 mm 0.05 in1.3 mm
12:30 PM 68.0°F20.0°C 61.9°F16.6°C 81% 8.7 mph SSW14.0 kmh SSW 22.9 mph36.9 kmh 30.21 in1023.0 mb 0.00 in0.0 mm 0.00 in0.0 mm 0.05 in1.3 mm
12:40 PM 68.9°F20.5°C 62.5°F16.9°C 80% 7.9 mph SSW12.7 kmh SSW 19.7 mph31.7 kmh 30.27 in1025.1 mb 0.00 in0.0 mm 0.00 in0.0 mm 0.05 in1.3 mm
12:50 PM 68.5°F20.3°C 61.4°F16.3°C 78% 8.1 mph SSW13.0 kmh SSW 15.7 mph25.3 kmh 30.27 in1025.1 mb 0.00 in0.0 mm 0.00 in0.0 mm 0.05 in1.3 mm
01:00 PM 68.5°F20.3°C 61.4°F16.3°C 78% 7.0 mph SW11.3 kmh SW 19.3 mph31.1 kmh 30.21 in1023.0 mb 0.00 in0.0 mm 0.00 in0.0 mm 0.05 in1.3 mm
01:10 PM 69.1°F20.6°C 61.9°F16.6°C 78% 7.5 mph SW12.1 kmh SW 19.3 mph31.1 kmh 30.21 in1023.0 mb 0.00 in0.0 mm 0.00 in0.0 mm 0.05 in1.3 mm
01:20 PM 69.6°F20.9°C 62.5°F16.9°C 78% 5.0 mph S8.0 kmh S 12.9 mph20.8 kmh 30.21 in1023.0 mb 0.00 in0.0 mm 0.00 in0.0 mm 0.05 in1.3 mm
01:30 PM 69.8°F21.0°C 61.9°F16.6°C 76% 5.9 mph S9.5 kmh S 14.0 mph22.5 kmh 30.24 in1024.0 mb 0.00 in0.0 mm 0.00 in0.0 mm 0.05 in1.3 mm
01:40 PM 69.4°F20.8°C 61.9°F16.6°C 77% 5.7 mph SSW9.2 kmh SSW 15.4 mph24.8 kmh 30.24 in1024.0 mb 0.00 in0.0 mm 0.00 in0.0 mm 0.05 in1.3 mm
01:50 PM 69.8°F21.0°C 61.9°F16.6°C 76% 7.0 mph SSW11.3 kmh SSW 15.7 mph25.3 kmh 30.24 in1024.0 mb 0.00 in0.0 mm 0.00 in0.0 mm 0.05 in1.3 mm
02:00 PM 70.2°F21.2°C 62.2°F16.8°C 76% 6.9 mph SSW11.1 kmh SSW 12.9 mph20.8 kmh 30.21 in1023.0 mb 0.00 in0.0 mm 0.00 in0.0 mm 0.05 in1.3 mm
02:10 PM 70.2°F21.2°C 61.9°F16.6°C 75% 6.1 mph WSW9.8 kmh WSW 15.7 mph25.3 kmh 30.24 in1024.0 mb 0.00 in0.0 mm 0.00 in0.0 mm 0.05 in1.3 mm
02:20 PM 69.8°F21.0°C 61.5°F16.4°C 75% 7.6 mph S12.2 kmh S 15.7 mph25.3 kmh 30.24 in1024.0 mb 0.00 in0.0 mm 0.00 in0.0 mm 0.05 in1.3 mm
02:30 PM 69.1°F20.6°C 60.8°F16.0°C 75% 6.8 mph SW10.9 kmh SW 16.1 mph25.9 kmh 30.21 in1023.0 mb 0.00 in0.0 mm 0.00 in0.0 mm 0.05 in1.3 mm
02:40 PM 68.7°F20.4°C 60.8°F16.0°C 76% 5.4 mph WSW8.7 kmh WSW 17.5 mph28.2 kmh 30.24 in1024.0 mb 0.00 in0.0 mm 0.00 in0.0 mm 0.05 in1.3 mm
02:50 PM 68.5°F20.3°C 61.0°F16.1°C 77% 6.5 mph SW10.5 kmh SW 16.5 mph26.6 kmh 30.24 in1024.0 mb 0.00 in0.0 mm 0.00 in0.0 mm 0.05 in1.3 mm
03:00 PM 68.4°F20.2°C 61.2°F16.2°C 78% 5.6 mph SW9.0 kmh SW 12.5 mph20.1 kmh 30.21 in1023.0 mb 0.00 in0.0 mm 0.00 in0.0 mm 0.05 in1.3 mm
03:10 PM 68.5°F20.3°C 61.4°F16.3°C 78% 8.2 mph SW13.2 kmh SW 16.8 mph27.0 kmh 30.24 in1024.0 mb 0.00 in0.0 mm 0.00 in0.0 mm 0.05 in1.3 mm
03:20 PM 68.7°F20.4°C 61.6°F16.4°C 78% 7.5 mph WSW12.1 kmh WSW 19.3 mph31.1 kmh 30.24 in1024.0 mb 0.00 in0.0 mm 0.00 in0.0 mm 0.05 in1.3 mm
03:30 PM 69.1°F20.6°C 61.9°F16.6°C 78% 8.1 mph WSW13.0 kmh WSW 19.7 mph31.7 kmh 30.24 in1024.0 mb 0.00 in0.0 mm 0.00 in0.0 mm 0.05 in1.3 mm
03:40 PM 69.4°F20.8°C 62.6°F17.0°C 79% 6.5 mph WSW10.5 kmh WSW 16.1 mph25.9 kmh 30.24 in1024.0 mb 0.00 in0.0 mm 0.00 in0.0 mm 0.05 in1.3 mm
03:50 PM 70.0°F21.1°C 62.8°F17.1°C 78% 6.7 mph W10.8 kmh W 16.1 mph25.9 kmh 30.24 in1024.0 mb 0.00 in0.0 mm 0.00 in0.0 mm 0.05 in1.3 mm
04:00 PM 70.2°F21.2°C 62.6°F17.0°C 77% 5.8 mph WSW9.3 kmh WSW 11.8 mph19.0 kmh 30.24 in1024.0 mb 0.00 in0.0 mm 0.00 in0.0 mm 0.05 in1.3 mm
04:10 PM 70.2°F21.2°C 61.9°F16.6°C 75% 5.4 mph WSW8.7 kmh WSW 14.7 mph23.7 kmh 30.24 in1024.0 mb 0.00 in0.0 mm 0.00 in0.0 mm 0.05 in1.3 mm
04:20 PM 69.6°F20.9°C 61.7°F16.5°C 76% 5.5 mph WSW8.9 kmh WSW 12.5 mph20.1 kmh 30.24 in1024.0 mb 0.00 in0.0 mm 0.00 in0.0 mm 0.05 in1.3 mm
04:30 PM 69.3°F20.7°C 61.7°F16.5°C 77% 4.1 mph WSW6.6 kmh WSW 11.8 mph19.0 kmh 30.24 in1024.0 mb 0.00 in0.0 mm 0.00 in0.0 mm 0.05 in1.3 mm
04:40 PM 69.1°F20.6°C 61.6°F16.4°C 77% 4.3 mph WSW6.9 kmh WSW 12.5 mph20.1 kmh 30.24 in1024.0 mb 0.00 in0.0 mm 0.00 in0.0 mm 0.05 in1.3 mm
04:50 PM 68.9°F20.5°C 61.8°F16.6°C 78% 4.3 mph WSW6.9 kmh WSW 10.0 mph16.1 kmh 30.24 in1024.0 mb 0.00 in0.0 mm 0.00 in0.0 mm 0.05 in1.3 mm
05:00 PM 69.1°F20.6°C 62.3°F16.8°C 79% 4.7 mph WSW7.6 kmh WSW 11.5 mph18.5 kmh 30.24 in1024.0 mb 0.00 in0.0 mm 0.00 in0.0 mm 0.05 in1.3 mm
05:10 PM 69.3°F20.7°C 62.5°F16.9°C 79% 4.9 mph SW7.9 kmh SW 15.4 mph24.8 kmh 30.24 in1024.0 mb 0.00 in0.0 mm 0.00 in0.0 mm 0.05 in1.3 mm
05:20 PM 69.3°F20.7°C 62.1°F16.7°C 78% 3.8 mph SW6.1 kmh SW 9.7 mph15.6 kmh 30.24 in1024.0 mb 0.00 in0.0 mm 0.00 in0.0 mm 0.05 in1.3 mm
05:30 PM 69.3°F20.7°C 62.1°F16.7°C 78% 4.6 mph WSW7.4 kmh WSW 10.0 mph16.1 kmh 30.24 in1024.0 mb 0.00 in0.0 mm 0.00 in0.0 mm 0.05 in1.3 mm
05:40 PM 69.1°F20.6°C 61.9°F16.6°C 78% 4.7 mph WSW7.6 kmh WSW 10.0 mph16.1 kmh 30.24 in1024.0 mb 0.00 in0.0 mm 0.00 in0.0 mm 0.05 in1.3 mm
05:50 PM 68.7°F20.4°C 61.6°F16.4°C 78% 3.4 mph WSW5.5 kmh WSW 9.7 mph15.6 kmh 30.24 in1024.0 mb 0.00 in0.0 mm 0.00 in0.0 mm 0.05 in1.3 mm
06:00 PM 68.4°F20.2°C 61.2°F16.2°C 78% 3.9 mph W6.3 kmh W 8.6 mph13.8 kmh 30.24 in1024.0 mb 0.00 in0.0 mm 0.00 in0.0 mm 0.05 in1.3 mm
06:10 PM 67.8°F19.9°C 61.1°F16.2°C 79% 3.4 mph W5.5 kmh W 10.4 mph16.7 kmh 30.24 in1024.0 mb 0.00 in0.0 mm 0.00 in0.0 mm 0.05 in1.3 mm
06:20 PM 67.5°F19.7°C 60.7°F15.9°C 79% 3.6 mph SW5.8 kmh SW 10.0 mph16.1 kmh 30.24 in1024.0 mb 0.00 in0.0 mm 0.00 in0.0 mm 0.05 in1.3 mm
06:30 PM 66.9°F19.4°C 60.2°F15.7°C 79% 2.5 mph WSW4.0 kmh WSW 8.9 mph14.3 kmh 30.24 in1024.0 mb 0.00 in0.0 mm 0.00 in0.0 mm 0.05 in1.3 mm
06:40 PM 66.6°F19.2°C 60.2°F15.7°C 80% 2.1 mph WSW3.4 kmh WSW 7.5 mph12.1 kmh 30.24 in1024.0 mb 0.00 in0.0 mm 0.00 in0.0 mm 0.05 in1.3 mm
06:50 PM 66.2°F19.0°C 59.8°F15.4°C 80% 2.3 mph WSW3.7 kmh WSW 6.1 mph9.8 kmh 30.24 in1024.0 mb 0.00 in0.0 mm 0.00 in0.0 mm 0.05 in1.3 mm
07:00 PM 65.7°F18.7°C 60.0°F15.6°C 82% 2.3 mph WSW3.7 kmh WSW 6.8 mph10.9 kmh 30.24 in1024.0 mb 0.00 in0.0 mm 0.00 in0.0 mm 0.05 in1.3 mm
07:10 PM 65.3°F18.5°C 59.7°F15.4°C 82% 1.2 mph W1.9 kmh W 4.7 mph7.6 kmh 30.24 in1024.0 mb 0.00 in0.0 mm 0.00 in0.0 mm 0.05 in1.3 mm
07:20 PM 64.9°F18.3°C 59.3°F15.2°C 82% 2.2 mph SSW3.5 kmh SSW 7.9 mph12.7 kmh 30.24 in1024.0 mb 0.00 in0.0 mm 0.00 in0.0 mm 0.05 in1.3 mm
07:30 PM 64.6°F18.1°C 59.3°F15.2°C 83% 2.3 mph SW3.7 kmh SW 7.9 mph12.7 kmh 30.27 in1025.1 mb 0.00 in0.0 mm 0.00 in0.0 mm 0.05 in1.3 mm
07:40 PM 64.0°F17.8°C 59.1°F15.1°C 84% 3.3 mph WSW5.3 kmh WSW 6.4 mph10.3 kmh 30.27 in1025.1 mb 0.00 in0.0 mm 0.00 in0.0 mm 0.05 in1.3 mm
07:50 PM 63.9°F17.7°C 58.9°F14.9°C 84% 2.4 mph WSW3.9 kmh WSW 5.4 mph8.7 kmh 30.27 in1025.1 mb 0.00 in0.0 mm 0.00 in0.0 mm 0.05 in1.3 mm
08:00 PM 63.5°F17.5°C 58.6°F14.8°C 84% 0.4 mph W0.6 kmh W 4.7 mph7.6 kmh 30.27 in1025.1 mb 0.00 in0.0 mm 0.00 in0.0 mm 0.05 in1.3 mm
08:10 PM 63.1°F17.3°C 58.6°F14.8°C 85% 0.7 mph W1.1 kmh W 4.3 mph6.9 kmh 30.27 in1025.1 mb 0.00 in0.0 mm 0.00 in0.0 mm 0.05 in1.3 mm
08:20 PM 63.0°F17.2°C 58.4°F14.7°C 85% 1.9 mph WSW3.1 kmh WSW 6.4 mph10.3 kmh 30.27 in1025.1 mb 0.00 in0.0 mm 0.00 in0.0 mm 0.05 in1.3 mm
08:30 PM 62.8°F17.1°C 58.5°F14.7°C 86% 0.5 mph SW0.8 kmh SW 4.3 mph6.9 kmh 30.27 in1025.1 mb 0.00 in0.0 mm 0.00 in0.0 mm 0.05 in1.3 mm
08:40 PM 62.6°F17.0°C 58.4°F14.7°C 86% 1.2 mph W1.9 kmh W 4.7 mph7.6 kmh 30.27 in1025.1 mb 0.00 in0.0 mm 0.00 in0.0 mm 0.05 in1.3 mm
08:50 PM 62.4°F16.9°C 58.5°F14.7°C 87% 0.2 mph W0.3 kmh W 4.3 mph6.9 kmh 30.27 in1025.1 mb 0.00 in0.0 mm 0.00 in0.0 mm 0.05 in1.3 mm
09:00 PM 62.1°F16.7°C 58.1°F14.5°C 87% Calm Calm 2.5 mph4.0 kmh 30.27 in1025.1 mb 0.00 in0.0 mm 0.00 in0.0 mm 0.05 in1.3 mm
09:10 PM 62.1°F16.7°C 58.5°F14.7°C 88% 0.4 mph WSW0.6 kmh WSW 3.2 mph5.1 kmh 30.27 in1025.1 mb 0.00 in0.0 mm 0.00 in0.0 mm 0.05 in1.3 mm
09:20 PM 61.9°F16.6°C 58.3°F14.6°C 88% 0.2 mph W0.3 kmh W 2.5 mph4.0 kmh 30.27 in1025.1 mb 0.00 in0.0 mm 0.00 in0.0 mm 0.05 in1.3 mm
09:30 PM 61.7°F16.5°C 58.1°F14.5°C 88% Calm Calm -- 30.27 in1025.1 mb 0.00 in0.0 mm 0.00 in0.0 mm 0.05 in1.3 mm
09:40 PM 61.5°F16.4°C 57.9°F14.4°C 88% Calm Calm -- 30.27 in1025.1 mb 0.00 in0.0 mm 0.00 in0.0 mm 0.05 in1.3 mm
09:50 PM 61.3°F16.3°C 57.8°F14.3°C 88% 0.2 mph S0.3 kmh S 3.2 mph5.1 kmh 30.27 in1025.1 mb 0.00 in0.0 mm 0.00 in0.0 mm 0.05 in1.3 mm
10:00 PM 61.3°F16.3°C 58.1°F14.5°C 89% 1.5 mph SW2.4 kmh SW 4.3 mph6.9 kmh 30.27 in1025.1 mb 0.00 in0.0 mm 0.00 in0.0 mm 0.05 in1.3 mm
10:10 PM 61.3°F16.3°C 58.1°F14.5°C 89% 0.3 mph WSW0.5 kmh WSW 3.9 mph6.3 kmh 30.27 in1025.1 mb 0.00 in0.0 mm 0.00 in0.0 mm 0.05 in1.3 mm
10:20 PM 61.2°F16.2°C 57.9°F14.4°C 89% 0.3 mph SW0.5 kmh SW 4.7 mph7.6 kmh 30.27 in1025.1 mb 0.00 in0.0 mm 0.00 in0.0 mm 0.05 in1.3 mm
10:30 PM 61.0°F16.1°C 57.7°F14.3°C 89% 0.1 mph WSW0.2 kmh WSW 3.2 mph5.1 kmh 30.27 in1025.1 mb 0.00 in0.0 mm 0.00 in0.0 mm 0.05 in1.3 mm
10:40 PM 60.8°F16.0°C 57.5°F14.2°C 89% Calm Calm -- 30.27 in1025.1 mb 0.00 in0.0 mm 0.00 in0.0 mm 0.05 in1.3 mm
10:50 PM 60.6°F15.9°C 57.4°F14.1°C 89% Calm Calm -- 30.27 in1025.1 mb 0.00 in0.0 mm 0.00 in0.0 mm 0.05 in1.3 mm
11:00 PM 60.4°F15.8°C 57.2°F14.0°C 89% Calm Calm -- 30.30 in1026.1 mb 0.00 in0.0 mm 0.00 in0.0 mm 0.05 in1.3 mm
11:10 PM 60.4°F15.8°C 57.5°F14.2°C 90% 0.2 mph S0.3 kmh S 3.2 mph5.1 kmh 30.30 in1026.1 mb 0.00 in0.0 mm 0.00 in0.0 mm 0.05 in1.3 mm
11:20 PM 60.3°F15.7°C 57.3°F14.1°C 90% Calm Calm -- 30.30 in1026.1 mb 0.00 in0.0 mm 0.00 in0.0 mm 0.05 in1.3 mm
11:30 PM 60.3°F15.7°C 57.3°F14.1°C 90% Calm Calm -- 30.30 in1026.1 mb 0.00 in0.0 mm 0.00 in0.0 mm 0.05 in1.3 mm
11:40 PM 59.9°F15.5°C 57.0°F13.9°C 90% Calm Calm -- 30.30 in1026.1 mb 0.00 in0.0 mm 0.00 in0.0 mm 0.05 in1.3 mm
11:50 PM 59.9°F15.5°C 57.0°F13.9°C 90% Calm Calm 1.4 mph2.3 kmh 30.30 in1026.1 mb 0.00 in0.0 mm 0.00 in0.0 mm 0.05 in1.3 mm